sensor_id;sensor_type;location;lat;lon;timestamp;temperature;humidity
3954;DHT22;1991;48.682;9.030;2023-08-30T00:00:17;12.90;99.90
3954;DHT22;1991;48.682;9.030;2023-08-30T00:02:44;12.90;99.90
3954;DHT22;1991;48.682;9.030;2023-08-30T00:05:10;12.90;99.90
3954;DHT22;1991;48.682;9.030;2023-08-30T00:07:36;13.00;99.90
3954;DHT22;1991;48.682;9.030;2023-08-30T00:10:01;12.90;99.90
3954;DHT22;1991;48.682;9.030;2023-08-30T00:12:28;12.90;99.90
3954;DHT22;1991;48.682;9.030;2023-08-30T00:14:54;12.90;99.90
3954;DHT22;1991;48.682;9.030;2023-08-30T00:17:20;12.90;99.90
3954;DHT22;1991;48.682;9.030;2023-08-30T00:19:46;12.90;99.90
3954;DHT22;1991;48.682;9.030;2023-08-30T00:22:11;13.00;99.90
3954;DHT22;1991;48.682;9.030;2023-08-30T00:24:38;12.90;99.90
3954;DHT22;1991;48.682;9.030;2023-08-30T00:27:04;12.90;99.90
3954;DHT22;1991;48.682;9.030;2023-08-30T00:29:30;12.90;99.90
3954;DHT22;1991;48.682;9.030;2023-08-30T00:31:56;12.90;99.90
3954;DHT22;1991;48.682;9.030;2023-08-30T00:34:21;13.00;99.90
3954;DHT22;1991;48.682;9.030;2023-08-30T00:36:47;12.90;99.90
3954;DHT22;1991;48.682;9.030;2023-08-30T00:39:13;12.90;99.90
3954;DHT22;1991;48.682;9.030;2023-08-30T00:41:39;13.00;99.90
3954;DHT22;1991;48.682;9.030;2023-08-30T00:44:04;12.90;99.90
3954;DHT22;1991;48.682;9.030;2023-08-30T00:46:31;12.90;99.90
3954;DHT22;1991;48.682;9.030;2023-08-30T00:48:58;12.90;99.90
3954;DHT22;1991;48.682;9.030;2023-08-30T00:51:23;12.90;99.90
3954;DHT22;1991;48.682;9.030;2023-08-30T00:53:49;12.90;99.90
3954;DHT22;1991;48.682;9.030;2023-08-30T00:56:15;12.90;99.90
3954;DHT22;1991;48.682;9.030;2023-08-30T00:58:41;12.90;99.90
3954;DHT22;1991;48.682;9.030;2023-08-30T01:01:07;12.90;99.90
3954;DHT22;1991;48.682;9.030;2023-08-30T01:03:34;12.90;99.90
3954;DHT22;1991;48.682;9.030;2023-08-30T01:06:00;12.90;99.90
3954;DHT22;1991;48.682;9.030;2023-08-30T01:08:26;12.90;99.90
3954;DHT22;1991;48.682;9.030;2023-08-30T01:13:42;12.90;99.90
3954;DHT22;1991;48.682;9.030;2023-08-30T01:16:10;12.90;99.90
3954;DHT22;1991;48.682;9.030;2023-08-30T01:18:38;13.00;99.90
3954;DHT22;1991;48.682;9.030;2023-08-30T01:21:09;12.90;99.90
3954;DHT22;1991;48.682;9.030;2023-08-30T01:23:47;12.90;99.90
3954;DHT22;1991;48.682;9.030;2023-08-30T01:26:29;12.90;99.90
3954;DHT22;1991;48.682;9.030;2023-08-30T01:29:01;12.90;99.90
3954;DHT22;1991;48.682;9.030;2023-08-30T01:31:29;12.90;99.90
3954;DHT22;1991;48.682;9.030;2023-08-30T01:33:59;12.80;99.90
3954;DHT22;1991;48.682;9.030;2023-08-30T01:36:25;12.90;99.90
3954;DHT22;1991;48.682;9.030;2023-08-30T01:38:52;12.80;99.90
3954;DHT22;1991;48.682;9.030;2023-08-30T01:41:19;12.80;99.90
3954;DHT22;1991;48.682;9.030;2023-08-30T01:43:45;12.80;99.90
3954;DHT22;1991;48.682;9.030;2023-08-30T01:46:13;12.80;99.90
3954;DHT22;1991;48.682;9.030;2023-08-30T01:48:40;12.80;99.90
3954;DHT22;1991;48.682;9.030;2023-08-30T01:51:07;12.80;99.90
3954;DHT22;1991;48.682;9.030;2023-08-30T01:53:34;12.70;99.90
3954;DHT22;1991;48.682;9.030;2023-08-30T01:56:00;12.70;99.90
3954;DHT22;1991;48.682;9.030;2023-08-30T01:58:25;12.70;99.90
3954;DHT22;1991;48.682;9.030;2023-08-30T02:00:51;12.70;99.90
3954;DHT22;1991;48.682;9.030;2023-08-30T02:03:16;12.70;99.90
3954;DHT22;1991;48.682;9.030;2023-08-30T02:08:26;12.70;99.90
3954;DHT22;1991;48.682;9.030;2023-08-30T02:10:58;12.70;99.90
3954;DHT22;1991;48.682;9.030;2023-08-30T02:13:28;12.70;99.90
3954;DHT22;1991;48.682;9.030;2023-08-30T02:15:55;12.70;99.90
3954;DHT22;1991;48.682;9.030;2023-08-30T02:18:23;12.70;99.90
3954;DHT22;1991;48.682;9.030;2023-08-30T02:20:50;12.70;99.90
3954;DHT22;1991;48.682;9.030;2023-08-30T02:23:16;12.60;99.90
3954;DHT22;1991;48.682;9.030;2023-08-30T02:25:41;12.60;99.90
3954;DHT22;1991;48.682;9.030;2023-08-30T02:28:07;12.60;99.90
3954;DHT22;1991;48.682;9.030;2023-08-30T02:30:32;12.60;99.90
3954;DHT22;1991;48.682;9.030;2023-08-30T02:32:58;12.60;99.90
3954;DHT22;1991;48.682;9.030;2023-08-30T02:35:23;12.50;99.90
3954;DHT22;1991;48.682;9.030;2023-08-30T02:37:49;12.50;99.90
3954;DHT22;1991;48.682;9.030;2023-08-30T02:40:15;12.50;99.90
3954;DHT22;1991;48.682;9.030;2023-08-30T02:42:40;12.50;99.90
3954;DHT22;1991;48.682;9.030;2023-08-30T02:45:06;12.40;99.90
3954;DHT22;1991;48.682;9.030;2023-08-30T02:47:32;12.40;99.90
3954;DHT22;1991;48.682;9.030;2023-08-30T02:49:57;12.40;99.90
3954;DHT22;1991;48.682;9.030;2023-08-30T02:52:23;12.40;99.90
3954;DHT22;1991;48.682;9.030;2023-08-30T02:54:48;12.30;99.90
3954;DHT22;1991;48.682;9.030;2023-08-30T02:57:14;12.30;99.90
3954;DHT22;1991;48.682;9.030;2023-08-30T02:59:40;12.30;99.90
3954;DHT22;1991;48.682;9.030;2023-08-30T03:02:05;12.30;99.90
3954;DHT22;1991;48.682;9.030;2023-08-30T03:04:31;12.30;99.90
3954;DHT22;1991;48.682;9.030;2023-08-30T03:06:56;12.20;99.90
3954;DHT22;1991;48.682;9.030;2023-08-30T03:09:22;12.20;99.90
3954;DHT22;1991;48.682;9.030;2023-08-30T03:11:47;12.20;99.90
3954;DHT22;1991;48.682;9.030;2023-08-30T03:14:13;12.20;99.90
3954;DHT22;1991;48.682;9.030;2023-08-30T03:16:39;12.20;99.90
3954;DHT22;1991;48.682;9.030;2023-08-30T03:19:04;12.20;99.90
3954;DHT22;1991;48.682;9.030;2023-08-30T03:21:30;12.20;99.90
3954;DHT22;1991;48.682;9.030;2023-08-30T03:23:56;12.20;99.90
3954;DHT22;1991;48.682;9.030;2023-08-30T03:26:21;12.20;99.90
3954;DHT22;1991;48.682;9.030;2023-08-30T03:28:47;12.20;99.90
3954;DHT22;1991;48.682;9.030;2023-08-30T03:31:16;12.20;99.90
3954;DHT22;1991;48.682;9.030;2023-08-30T03:33:42;12.20;99.90
3954;DHT22;1991;48.682;9.030;2023-08-30T03:36:10;12.20;99.90
3954;DHT22;1991;48.682;9.030;2023-08-30T03:38:36;12.20;99.90
3954;DHT22;1991;48.682;9.030;2023-08-30T03:41:02;12.20;99.90
3954;DHT22;1991;48.682;9.030;2023-08-30T03:43:29;12.20;99.90
3954;DHT22;1991;48.682;9.030;2023-08-30T03:45:55;12.20;99.90
3954;DHT22;1991;48.682;9.030;2023-08-30T03:48:20;12.10;99.90
3954;DHT22;1991;48.682;9.030;2023-08-30T03:50:46;12.10;99.90
3954;DHT22;1991;48.682;9.030;2023-08-30T03:53:11;12.20;99.90
3954;DHT22;1991;48.682;9.030;2023-08-30T03:55:37;12.10;99.90
3954;DHT22;1991;48.682;9.030;2023-08-30T03:58:03;12.10;99.90
3954;DHT22;1991;48.682;9.030;2023-08-30T04:00:28;12.10;99.90
3954;DHT22;1991;48.682;9.030;2023-08-30T04:02:54;12.10;99.90
3954;DHT22;1991;48.682;9.030;2023-08-30T04:05:19;12.10;99.90
3954;DHT22;1991;48.682;9.030;2023-08-30T04:07:45;12.10;99.90
3954;DHT22;1991;48.682;9.030;2023-08-30T04:10:11;12.10;99.90
3954;DHT22;1991;48.682;9.030;2023-08-30T04:12:36;12.00;99.90
3954;DHT22;1991;48.682;9.030;2023-08-30T04:15:02;12.00;99.90
3954;DHT22;1991;48.682;9.030;2023-08-30T04:17:28;12.00;99.90
3954;DHT22;1991;48.682;9.030;2023-08-30T04:19:54;12.00;99.90
3954;DHT22;1991;48.682;9.030;2023-08-30T04:22:20;12.00;99.90
3954;DHT22;1991;48.682;9.030;2023-08-30T04:24:46;12.00;99.90
3954;DHT22;1991;48.682;9.030;2023-08-30T04:27:12;12.00;99.90
3954;DHT22;1991;48.682;9.030;2023-08-30T04:29:37;12.10;99.90
3954;DHT22;1991;48.682;9.030;2023-08-30T04:32:03;12.10;99.90
3954;DHT22;1991;48.682;9.030;2023-08-30T04:34:29;12.10;99.90
3954;DHT22;1991;48.682;9.030;2023-08-30T04:36:56;12.10;99.90
3954;DHT22;1991;48.682;9.030;2023-08-30T04:39:21;12.10;99.90
3954;DHT22;1991;48.682;9.030;2023-08-30T04:41:47;12.10;99.90
3954;DHT22;1991;48.682;9.030;2023-08-30T04:44:12;12.10;99.90
3954;DHT22;1991;48.682;9.030;2023-08-30T04:46:38;12.10;99.90
3954;DHT22;1991;48.682;9.030;2023-08-30T04:49:03;12.10;99.90
3954;DHT22;1991;48.682;9.030;2023-08-30T04:51:29;12.20;99.90
3954;DHT22;1991;48.682;9.030;2023-08-30T04:53:55;12.20;99.90
3954;DHT22;1991;48.682;9.030;2023-08-30T04:56:20;12.10;99.90
3954;DHT22;1991;48.682;9.030;2023-08-30T04:58:46;12.20;99.90
3954;DHT22;1991;48.682;9.030;2023-08-30T05:01:12;12.20;99.90
3954;DHT22;1991;48.682;9.030;2023-08-30T05:03:39;12.30;99.90
3954;DHT22;1991;48.682;9.030;2023-08-30T05:06:05;12.20;99.90
3954;DHT22;1991;48.682;9.030;2023-08-30T05:08:31;12.30;99.90
3954;DHT22;1991;48.682;9.030;2023-08-30T05:10:57;12.30;99.90
3954;DHT22;1991;48.682;9.030;2023-08-30T05:13:22;12.30;99.90
3954;DHT22;1991;48.682;9.030;2023-08-30T05:15:49;12.30;99.90
3954;DHT22;1991;48.682;9.030;2023-08-30T05:18:15;12.30;99.90
3954;DHT22;1991;48.682;9.030;2023-08-30T05:20:40;12.30;99.90
3954;DHT22;1991;48.682;9.030;2023-08-30T05:23:06;12.30;99.90
3954;DHT22;1991;48.682;9.030;2023-08-30T05:25:31;12.40;99.90
3954;DHT22;1991;48.682;9.030;2023-08-30T05:27:57;12.40;99.90
3954;DHT22;1991;48.682;9.030;2023-08-30T05:30:22;12.40;99.90
3954;DHT22;1991;48.682;9.030;2023-08-30T05:32:48;12.50;99.90
3954;DHT22;1991;48.682;9.030;2023-08-30T05:35:14;12.60;99.90
3954;DHT22;1991;48.682;9.030;2023-08-30T05:37:39;12.60;99.90
3954;DHT22;1991;48.682;9.030;2023-08-30T05:40:05;12.60;99.90
3954;DHT22;1991;48.682;9.030;2023-08-30T05:42:31;12.60;99.90
3954;DHT22;1991;48.682;9.030;2023-08-30T05:44:57;12.70;99.90
3954;DHT22;1991;48.682;9.030;2023-08-30T05:47:22;12.70;99.90
3954;DHT22;1991;48.682;9.030;2023-08-30T05:49:48;12.70;99.90
3954;DHT22;1991;48.682;9.030;2023-08-30T05:52:14;12.70;99.90
3954;DHT22;1991;48.682;9.030;2023-08-30T05:54:41;12.80;99.90
3954;DHT22;1991;48.682;9.030;2023-08-30T05:57:09;12.80;99.90
3954;DHT22;1991;48.682;9.030;2023-08-30T05:59:34;12.80;99.90
3954;DHT22;1991;48.682;9.030;2023-08-30T06:02:01;12.80;99.90
3954;DHT22;1991;48.682;9.030;2023-08-30T06:04:26;12.90;99.90
3954;DHT22;1991;48.682;9.030;2023-08-30T06:06:52;12.90;99.90
3954;DHT22;1991;48.682;9.030;2023-08-30T06:09:17;13.00;99.90
3954;DHT22;1991;48.682;9.030;2023-08-30T06:11:43;13.00;99.90
3954;DHT22;1991;48.682;9.030;2023-08-30T06:14:08;13.00;99.90
3954;DHT22;1991;48.682;9.030;2023-08-30T06:16:34;13.00;99.90
3954;DHT22;1991;48.682;9.030;2023-08-30T06:19:00;13.10;99.90
3954;DHT22;1991;48.682;9.030;2023-08-30T06:21:25;13.10;99.90
3954;DHT22;1991;48.682;9.030;2023-08-30T06:23:51;13.10;99.90
3954;DHT22;1991;48.682;9.030;2023-08-30T06:26:17;13.20;99.90
3954;DHT22;1991;48.682;9.030;2023-08-30T06:28:43;13.20;99.90
3954;DHT22;1991;48.682;9.030;2023-08-30T06:31:09;13.20;99.90
3954;DHT22;1991;48.682;9.030;2023-08-30T06:33:35;13.20;99.90
3954;DHT22;1991;48.682;9.030;2023-08-30T06:36:01;13.20;99.90
3954;DHT22;1991;48.682;9.030;2023-08-30T06:38:27;13.20;99.90
3954;DHT22;1991;48.682;9.030;2023-08-30T06:40:52;13.20;99.90
3954;DHT22;1991;48.682;9.030;2023-08-30T06:43:19;13.30;99.90
3954;DHT22;1991;48.682;9.030;2023-08-30T06:45:44;13.30;99.90
3954;DHT22;1991;48.682;9.030;2023-08-30T06:48:10;13.30;99.90
3954;DHT22;1991;48.682;9.030;2023-08-30T06:50:36;13.30;99.90
3954;DHT22;1991;48.682;9.030;2023-08-30T06:53:02;13.40;99.90
3954;DHT22;1991;48.682;9.030;2023-08-30T06:55:28;13.30;99.90
3954;DHT22;1991;48.682;9.030;2023-08-30T06:57:54;13.40;99.90
3954;DHT22;1991;48.682;9.030;2023-08-30T07:00:20;13.40;99.90
3954;DHT22;1991;48.682;9.030;2023-08-30T07:02:45;13.50;99.90
3954;DHT22;1991;48.682;9.030;2023-08-30T07:05:14;13.50;99.90
3954;DHT22;1991;48.682;9.030;2023-08-30T07:07:40;13.50;99.90
3954;DHT22;1991;48.682;9.030;2023-08-30T07:10:06;13.60;99.90
3954;DHT22;1991;48.682;9.030;2023-08-30T07:12:32;13.60;99.90
3954;DHT22;1991;48.682;9.030;2023-08-30T07:14:57;13.70;99.90
3954;DHT22;1991;48.682;9.030;2023-08-30T07:17:23;13.70;99.90
3954;DHT22;1991;48.682;9.030;2023-08-30T07:19:49;13.70;99.90
3954;DHT22;1991;48.682;9.030;2023-08-30T07:22:14;13.70;99.90
3954;DHT22;1991;48.682;9.030;2023-08-30T07:24:42;13.70;99.90
3954;DHT22;1991;48.682;9.030;2023-08-30T07:27:08;13.80;99.90
3954;DHT22;1991;48.682;9.030;2023-08-30T07:29:34;13.80;99.90
3954;DHT22;1991;48.682;9.030;2023-08-30T07:31:59;13.80;99.90
3954;DHT22;1991;48.682;9.030;2023-08-30T07:34:25;13.90;99.90
3954;DHT22;1991;48.682;9.030;2023-08-30T07:36:54;13.90;99.90
3954;DHT22;1991;48.682;9.030;2023-08-30T07:39:20;13.90;99.90
3954;DHT22;1991;48.682;9.030;2023-08-30T07:41:46;14.00;99.90
3954;DHT22;1991;48.682;9.030;2023-08-30T07:44:11;14.00;99.90
3954;DHT22;1991;48.682;9.030;2023-08-30T07:46:37;14.10;99.90
3954;DHT22;1991;48.682;9.030;2023-08-30T07:49:03;14.10;99.90
3954;DHT22;1991;48.682;9.030;2023-08-30T07:51:28;14.10;99.90
3954;DHT22;1991;48.682;9.030;2023-08-30T07:53:54;14.10;99.90
3954;DHT22;1991;48.682;9.030;2023-08-30T07:56:19;14.20;99.90
3954;DHT22;1991;48.682;9.030;2023-08-30T07:58:45;14.20;99.90
3954;DHT22;1991;48.682;9.030;2023-08-30T08:01:11;14.20;99.90
3954;DHT22;1991;48.682;9.030;2023-08-30T08:03:36;14.30;99.90
3954;DHT22;1991;48.682;9.030;2023-08-30T08:06:02;14.30;99.90
3954;DHT22;1991;48.682;9.030;2023-08-30T08:08:28;14.40;99.90
3954;DHT22;1991;48.682;9.030;2023-08-30T08:10:54;14.40;99.90
3954;DHT22;1991;48.682;9.030;2023-08-30T08:13:20;14.50;99.90
3954;DHT22;1991;48.682;9.030;2023-08-30T08:15:45;14.70;99.90
3954;DHT22;1991;48.682;9.030;2023-08-30T08:18:11;14.80;99.90
3954;DHT22;1991;48.682;9.030;2023-08-30T08:20:36;14.90;99.90
3954;DHT22;1991;48.682;9.030;2023-08-30T08:23:03;15.10;99.90
3954;DHT22;1991;48.682;9.030;2023-08-30T08:25:29;15.20;99.90
3954;DHT22;1991;48.682;9.030;2023-08-30T08:27:54;15.30;99.90
3954;DHT22;1991;48.682;9.030;2023-08-30T08:30:20;15.40;99.90
3954;DHT22;1991;48.682;9.030;2023-08-30T08:32:47;15.60;99.90
3954;DHT22;1991;48.682;9.030;2023-08-30T08:35:15;15.70;99.90
3954;DHT22;1991;48.682;9.030;2023-08-30T08:37:41;15.80;99.90
3954;DHT22;1991;48.682;9.030;2023-08-30T08:40:07;16.00;99.90
3954;DHT22;1991;48.682;9.030;2023-08-30T08:42:36;16.20;99.90
3954;DHT22;1991;48.682;9.030;2023-08-30T08:45:03;16.40;99.90
3954;DHT22;1991;48.682;9.030;2023-08-30T08:47:30;16.50;99.90
3954;DHT22;1991;48.682;9.030;2023-08-30T08:49:57;16.80;99.90
3954;DHT22;1991;48.682;9.030;2023-08-30T08:52:25;17.00;99.90
3954;DHT22;1991;48.682;9.030;2023-08-30T08:54:52;17.20;99.90
3954;DHT22;1991;48.682;9.030;2023-08-30T08:57:18;17.40;99.90
3954;DHT22;1991;48.682;9.030;2023-08-30T08:59:44;17.30;99.90
3954;DHT22;1991;48.682;9.030;2023-08-30T09:02:12;17.30;99.90
3954;DHT22;1991;48.682;9.030;2023-08-30T09:04:39;17.20;99.90
3954;DHT22;1991;48.682;9.030;2023-08-30T09:07:05;17.20;99.90
3954;DHT22;1991;48.682;9.030;2023-08-30T09:09:31;17.40;99.90
3954;DHT22;1991;48.682;9.030;2023-08-30T09:11:56;17.50;99.90
3954;DHT22;1991;48.682;9.030;2023-08-30T09:14:22;17.50;99.90
3954;DHT22;1991;48.682;9.030;2023-08-30T09:16:57;17.70;99.90
3954;DHT22;1991;48.682;9.030;2023-08-30T09:19:23;17.90;99.90
3954;DHT22;1991;48.682;9.030;2023-08-30T09:21:56;18.20;99.90
3954;DHT22;1991;48.682;9.030;2023-08-30T09:24:22;18.70;99.90
3954;DHT22;1991;48.682;9.030;2023-08-30T09:26:49;19.30;99.90
3954;DHT22;1991;48.682;9.030;2023-08-30T09:29:17;20.80;99.90
3954;DHT22;1991;48.682;9.030;2023-08-30T09:31:43;22.40;99.90
3954;DHT22;1991;48.682;9.030;2023-08-30T09:34:09;24.50;96.30
3954;DHT22;1991;48.682;9.030;2023-08-30T09:36:40;24.10;92.30
3954;DHT22;1991;48.682;9.030;2023-08-30T09:39:12;24.40;90.00
3954;DHT22;1991;48.682;9.030;2023-08-30T09:41:48;25.40;84.10
3954;DHT22;1991;48.682;9.030;2023-08-30T09:44:19;25.60;84.30
3954;DHT22;1991;48.682;9.030;2023-08-30T09:46:48;25.40;83.10
3954;DHT22;1991;48.682;9.030;2023-08-30T09:49:14;27.70;77.60
3954;DHT22;1991;48.682;9.030;2023-08-30T09:51:41;29.00;71.30
3954;DHT22;1991;48.682;9.030;2023-08-30T09:54:14;30.40;67.30
3954;DHT22;1991;48.682;9.030;2023-08-30T09:56:41;31.50;63.60
3954;DHT22;1991;48.682;9.030;2023-08-30T09:59:08;32.30;59.10
3954;DHT22;1991;48.682;9.030;2023-08-30T10:01:37;32.10;57.30
3954;DHT22;1991;48.682;9.030;2023-08-30T10:04:02;30.20;58.30
3954;DHT22;1991;48.682;9.030;2023-08-30T10:06:29;28.70;61.60
3954;DHT22;1991;48.682;9.030;2023-08-30T10:08:56;27.50;62.60
3954;DHT22;1991;48.682;9.030;2023-08-30T10:11:24;26.60;65.20
3954;DHT22;1991;48.682;9.030;2023-08-30T10:13:51;26.10;68.40
3954;DHT22;1991;48.682;9.030;2023-08-30T10:16:23;25.40;67.50
3954;DHT22;1991;48.682;9.030;2023-08-30T10:18:59;25.30;69.20
3954;DHT22;1991;48.682;9.030;2023-08-30T10:21:26;25.10;69.30
3954;DHT22;1991;48.682;9.030;2023-08-30T10:23:54;25.30;71.80
3954;DHT22;1991;48.682;9.030;2023-08-30T10:26:23;24.90;70.30
3954;DHT22;1991;48.682;9.030;2023-08-30T10:28:49;24.40;70.90
3954;DHT22;1991;48.682;9.030;2023-08-30T10:31:16;24.00;70.50
3954;DHT22;1991;48.682;9.030;2023-08-30T10:33:55;23.40;71.80
3954;DHT22;1991;48.682;9.030;2023-08-30T10:36:25;22.80;73.90
3954;DHT22;1991;48.682;9.030;2023-08-30T10:38:53;22.80;76.00
3954;DHT22;1991;48.682;9.030;2023-08-30T10:41:23;23.20;76.80
3954;DHT22;1991;48.682;9.030;2023-08-30T10:43:54;23.60;73.70
3954;DHT22;1991;48.682;9.030;2023-08-30T10:46:34;23.50;74.00
3954;DHT22;1991;48.682;9.030;2023-08-30T10:49:11;23.50;72.30
3954;DHT22;1991;48.682;9.030;2023-08-30T10:51:38;23.20;72.60
3954;DHT22;1991;48.682;9.030;2023-08-30T10:54:11;23.50;73.20
3954;DHT22;1991;48.682;9.030;2023-08-30T10:56:57;23.60;72.50
3954;DHT22;1991;48.682;9.030;2023-08-30T10:59:25;23.90;74.70
3954;DHT22;1991;48.682;9.030;2023-08-30T11:01:51;24.20;70.90
3954;DHT22;1991;48.682;9.030;2023-08-30T11:04:18;24.00;69.70
3954;DHT22;1991;48.682;9.030;2023-08-30T11:06:45;23.80;71.30
3954;DHT22;1991;48.682;9.030;2023-08-30T11:09:15;23.80;70.50
3954;DHT22;1991;48.682;9.030;2023-08-30T11:11:48;23.90;72.00
3954;DHT22;1991;48.682;9.030;2023-08-30T11:14:15;23.80;73.10
3954;DHT22;1991;48.682;9.030;2023-08-30T11:16:41;23.90;71.70
3954;DHT22;1991;48.682;9.030;2023-08-30T11:19:09;23.70;70.70
3954;DHT22;1991;48.682;9.030;2023-08-30T11:21:37;23.80;70.50
3954;DHT22;1991;48.682;9.030;2023-08-30T11:24:07;23.70;70.50
3954;DHT22;1991;48.682;9.030;2023-08-30T11:26:33;23.30;72.70
3954;DHT22;1991;48.682;9.030;2023-08-30T11:29:04;23.30;73.10
3954;DHT22;1991;48.682;9.030;2023-08-30T11:31:30;23.20;71.90
3954;DHT22;1991;48.682;9.030;2023-08-30T11:33:57;23.00;72.50
3954;DHT22;1991;48.682;9.030;2023-08-30T11:36:28;22.50;73.70
3954;DHT22;1991;48.682;9.030;2023-08-30T11:38:54;22.20;74.80
3954;DHT22;1991;48.682;9.030;2023-08-30T11:41:21;21.50;76.10
3954;DHT22;1991;48.682;9.030;2023-08-30T11:43:52;20.80;77.90
3954;DHT22;1991;48.682;9.030;2023-08-30T11:46:18;20.20;81.00
3954;DHT22;1991;48.682;9.030;2023-08-30T11:48:45;19.60;81.60
3954;DHT22;1991;48.682;9.030;2023-08-30T11:51:11;19.10;87.70
3954;DHT22;1991;48.682;9.030;2023-08-30T11:53:38;18.80;92.30
3954;DHT22;1991;48.682;9.030;2023-08-30T11:56:05;18.40;96.80
3954;DHT22;1991;48.682;9.030;2023-08-30T11:58:35;18.10;99.50
3954;DHT22;1991;48.682;9.030;2023-08-30T12:01:02;17.80;99.90
3954;DHT22;1991;48.682;9.030;2023-08-30T12:03:28;17.70;99.90
3954;DHT22;1991;48.682;9.030;2023-08-30T12:05:55;17.50;99.90
3954;DHT22;1991;48.682;9.030;2023-08-30T12:08:30;17.40;99.90
3954;DHT22;1991;48.682;9.030;2023-08-30T12:10:57;17.20;99.90
3954;DHT22;1991;48.682;9.030;2023-08-30T12:13:28;17.10;99.90
3954;DHT22;1991;48.682;9.030;2023-08-30T12:15:56;17.20;99.90
3954;DHT22;1991;48.682;9.030;2023-08-30T12:18:26;17.30;99.90
3954;DHT22;1991;48.682;9.030;2023-08-30T12:20:55;17.50;99.90
3954;DHT22;1991;48.682;9.030;2023-08-30T12:23:23;17.60;99.90
3954;DHT22;1991;48.682;9.030;2023-08-30T12:26:10;17.60;99.90
3954;DHT22;1991;48.682;9.030;2023-08-30T12:28:38;17.60;99.90
3954;DHT22;1991;48.682;9.030;2023-08-30T12:31:04;17.70;99.90
3954;DHT22;1991;48.682;9.030;2023-08-30T12:33:31;17.80;99.90
3954;DHT22;1991;48.682;9.030;2023-08-30T12:35:57;17.80;99.90
3954;DHT22;1991;48.682;9.030;2023-08-30T12:38:23;17.80;99.90
3954;DHT22;1991;48.682;9.030;2023-08-30T12:40:53;17.80;99.90
3954;DHT22;1991;48.682;9.030;2023-08-30T12:43:20;17.80;99.90
3954;DHT22;1991;48.682;9.030;2023-08-30T12:45:46;17.80;99.90
3954;DHT22;1991;48.682;9.030;2023-08-30T12:48:13;17.90;99.90
3954;DHT22;1991;48.682;9.030;2023-08-30T12:50:45;17.90;99.90
3954;DHT22;1991;48.682;9.030;2023-08-30T12:53:11;18.00;99.90
3954;DHT22;1991;48.682;9.030;2023-08-30T12:55:37;18.00;99.90
3954;DHT22;1991;48.682;9.030;2023-08-30T12:58:06;18.00;99.90
3954;DHT22;1991;48.682;9.030;2023-08-30T13:00:32;18.10;99.90
3954;DHT22;1991;48.682;9.030;2023-08-30T13:02:59;18.20;99.90
3954;DHT22;1991;48.682;9.030;2023-08-30T13:05:24;18.20;99.90
3954;DHT22;1991;48.682;9.030;2023-08-30T13:07:50;18.20;99.90
3954;DHT22;1991;48.682;9.030;2023-08-30T13:10:16;18.20;99.90
3954;DHT22;1991;48.682;9.030;2023-08-30T13:12:42;18.40;99.90
3954;DHT22;1991;48.682;9.030;2023-08-30T13:15:08;18.40;99.90
3954;DHT22;1991;48.682;9.030;2023-08-30T13:17:34;18.80;99.90
3954;DHT22;1991;48.682;9.030;2023-08-30T13:20:00;19.20;99.90
3954;DHT22;1991;48.682;9.030;2023-08-30T13:22:27;19.60;99.90
3954;DHT22;1991;48.682;9.030;2023-08-30T13:24:52;20.20;99.90
3954;DHT22;1991;48.682;9.030;2023-08-30T13:27:19;20.90;99.90
3954;DHT22;1991;48.682;9.030;2023-08-30T13:29:44;21.20;99.30
3954;DHT22;1991;48.682;9.030;2023-08-30T13:32:10;21.50;96.70
3954;DHT22;1991;48.682;9.030;2023-08-30T13:34:37;21.70;94.40
3954;DHT22;1991;48.682;9.030;2023-08-30T13:37:02;21.40;93.20
3954;DHT22;1991;48.682;9.030;2023-08-30T13:39:28;21.20;92.50
3954;DHT22;1991;48.682;9.030;2023-08-30T13:41:54;21.00;93.50
3954;DHT22;1991;48.682;9.030;2023-08-30T13:44:19;20.90;93.60
3954;DHT22;1991;48.682;9.030;2023-08-30T13:46:45;20.60;94.70
3954;DHT22;1991;48.682;9.030;2023-08-30T13:49:14;20.50;96.20
3954;DHT22;1991;48.682;9.030;2023-08-30T13:51:40;20.40;97.50
3954;DHT22;1991;48.682;9.030;2023-08-30T13:54:06;20.50;98.60
3954;DHT22;1991;48.682;9.030;2023-08-30T13:56:32;20.60;98.30
3954;DHT22;1991;48.682;9.030;2023-08-30T13:58:58;20.50;98.90
3954;DHT22;1991;48.682;9.030;2023-08-30T14:01:23;20.40;99.10
3954;DHT22;1991;48.682;9.030;2023-08-30T14:03:49;20.30;97.90
3954;DHT22;1991;48.682;9.030;2023-08-30T14:06:14;20.40;98.40
3954;DHT22;1991;48.682;9.030;2023-08-30T14:08:40;20.50;98.40
3954;DHT22;1991;48.682;9.030;2023-08-30T14:11:06;20.50;98.70
3954;DHT22;1991;48.682;9.030;2023-08-30T14:13:32;20.40;98.90
3954;DHT22;1991;48.682;9.030;2023-08-30T14:16:02;20.20;98.60
3954;DHT22;1991;48.682;9.030;2023-08-30T14:18:28;20.20;98.00
3954;DHT22;1991;48.682;9.030;2023-08-30T14:20:58;20.20;98.40
3954;DHT22;1991;48.682;9.030;2023-08-30T14:23:28;20.10;97.80
3954;DHT22;1991;48.682;9.030;2023-08-30T14:26:04;20.10;96.70
3954;DHT22;1991;48.682;9.030;2023-08-30T14:28:39;20.00;97.30
3954;DHT22;1991;48.682;9.030;2023-08-30T14:31:11;20.00;99.20
3954;DHT22;1991;48.682;9.030;2023-08-30T14:33:39;19.80;97.10
3954;DHT22;1991;48.682;9.030;2023-08-30T14:36:11;19.60;96.80
3954;DHT22;1991;48.682;9.030;2023-08-30T14:38:37;19.60;97.30
3954;DHT22;1991;48.682;9.030;2023-08-30T14:41:03;19.50;96.40
3954;DHT22;1991;48.682;9.030;2023-08-30T14:43:29;19.50;97.20
3954;DHT22;1991;48.682;9.030;2023-08-30T14:46:01;19.50;97.10
3954;DHT22;1991;48.682;9.030;2023-08-30T14:48:27;19.50;97.80
3954;DHT22;1991;48.682;9.030;2023-08-30T14:50:53;19.50;99.20
3954;DHT22;1991;48.682;9.030;2023-08-30T14:53:18;19.40;98.30
3954;DHT22;1991;48.682;9.030;2023-08-30T14:55:44;19.40;98.40
3954;DHT22;1991;48.682;9.030;2023-08-30T14:58:11;19.40;98.60
3954;DHT22;1991;48.682;9.030;2023-08-30T15:00:37;19.40;99.30
3954;DHT22;1991;48.682;9.030;2023-08-30T15:03:02;19.40;99.90
3954;DHT22;1991;48.682;9.030;2023-08-30T15:05:28;19.50;99.20
3954;DHT22;1991;48.682;9.030;2023-08-30T15:07:53;19.50;99.00
3954;DHT22;1991;48.682;9.030;2023-08-30T15:10:19;19.60;98.80
3954;DHT22;1991;48.682;9.030;2023-08-30T15:12:45;19.60;98.80
3954;DHT22;1991;48.682;9.030;2023-08-30T15:15:10;19.60;99.50
3954;DHT22;1991;48.682;9.030;2023-08-30T15:17:36;19.70;99.80
3954;DHT22;1991;48.682;9.030;2023-08-30T15:20:02;19.60;99.90
3954;DHT22;1991;48.682;9.030;2023-08-30T15:22:29;19.60;99.90
3954;DHT22;1991;48.682;9.030;2023-08-30T15:24:54;19.50;99.90
3954;DHT22;1991;48.682;9.030;2023-08-30T15:27:20;19.50;99.70
3954;DHT22;1991;48.682;9.030;2023-08-30T15:29:47;19.50;98.80
3954;DHT22;1991;48.682;9.030;2023-08-30T15:32:17;19.60;98.70
3954;DHT22;1991;48.682;9.030;2023-08-30T15:34:43;19.60;98.80
3954;DHT22;1991;48.682;9.030;2023-08-30T15:37:09;19.80;99.20
3954;DHT22;1991;48.682;9.030;2023-08-30T15:39:37;19.90;99.80
3954;DHT22;1991;48.682;9.030;2023-08-30T15:42:03;20.30;97.90
3954;DHT22;1991;48.682;9.030;2023-08-30T15:44:29;20.50;97.90
3954;DHT22;1991;48.682;9.030;2023-08-30T15:46:54;20.60;96.90
3954;DHT22;1991;48.682;9.030;2023-08-30T15:49:20;20.50;96.50
3954;DHT22;1991;48.682;9.030;2023-08-30T15:51:45;20.40;97.50
3954;DHT22;1991;48.682;9.030;2023-08-30T15:54:11;20.40;97.20
3954;DHT22;1991;48.682;9.030;2023-08-30T15:56:37;20.40;96.70
3954;DHT22;1991;48.682;9.030;2023-08-30T15:59:03;20.30;97.00
3954;DHT22;1991;48.682;9.030;2023-08-30T16:01:29;20.20;96.50
3954;DHT22;1991;48.682;9.030;2023-08-30T16:03:54;20.10;97.00